sensor_id;sensor_type;location;lat;lon;timestamp;P1;durP1;ratioP1;P2;durP2;ratioP2
26562;SDS011;14217;50.986;5.826;2022-10-26T00:00:40;8.43;;;1.35;;
26562;SDS011;14217;50.986;5.826;2022-10-26T00:05:41;5.32;;;1.27;;
26562;SDS011;14217;50.986;5.826;2022-10-26T00:10:44;9.15;;;0.70;;
26562;SDS011;14217;50.986;5.826;2022-10-26T00:15:46;3.63;;;0.90;;
26562;SDS011;14217;50.986;5.826;2022-10-26T00:20:48;4.75;;;0.98;;
26562;SDS011;14217;50.986;5.826;2022-10-26T00:25:57;2.55;;;0.60;;
26562;SDS011;14217;50.986;5.826;2022-10-26T00:31:03;3.22;;;0.98;;
26562;SDS011;14217;50.986;5.826;2022-10-26T00:36:07;5.25;;;0.93;;
26562;SDS011;14217;50.986;5.826;2022-10-26T00:41:14;2.72;;;0.70;;
26562;SDS011;14217;50.986;5.826;2022-10-26T00:51:28;3.42;;;0.63;;
26562;SDS011;14217;50.986;5.826;2022-10-26T00:56:35;1.90;;;0.80;;
26562;SDS011;14217;50.986;5.826;2022-10-26T01:01:38;2.65;;;0.80;;
26562;SDS011;14217;50.986;5.826;2022-10-26T01:06:43;4.88;;;1.23;;
26562;SDS011;14217;50.986;5.826;2022-10-26T01:11:47;3.13;;;0.85;;
26562;SDS011;14217;50.986;5.826;2022-10-26T01:21:55;2.10;;;0.77;;
26562;SDS011;14217;50.986;5.826;2022-10-26T01:27:19;0.98;;;0.57;;
26562;SDS011;14217;50.986;5.826;2022-10-26T01:33:09;2.67;;;0.85;;
26562;SDS011;14217;50.986;5.826;2022-10-26T01:37:57;1.42;;;0.73;;
26562;SDS011;14217;50.986;5.826;2022-10-26T01:43:09;2.50;;;0.65;;
26562;SDS011;14217;50.986;5.826;2022-10-26T01:48:15;10.30;;;1.08;;
26562;SDS011;14217;50.986;5.826;2022-10-26T01:53:19;1.63;;;0.43;;
26562;SDS011;14217;50.986;5.826;2022-10-26T01:58:31;1.77;;;0.55;;
26562;SDS011;14217;50.986;5.826;2022-10-26T02:24:34;2.85;;;0.80;;
26562;SDS011;14217;50.986;5.826;2022-10-26T02:29:37;1.45;;;0.70;;
26562;SDS011;14217;50.986;5.826;2022-10-26T02:34:40;1.67;;;0.60;;
26562;SDS011;14217;50.986;5.826;2022-10-26T02:39:47;0.70;;;0.40;;
26562;SDS011;14217;50.986;5.826;2022-10-26T02:44:55;1.65;;;0.55;;
26562;SDS011;14217;50.986;5.826;2022-10-26T02:50:00;0.73;;;0.68;;
26562;SDS011;14217;50.986;5.826;2022-10-26T02:55:04;1.95;;;0.68;;
26562;SDS011;14217;50.986;5.826;2022-10-26T03:00:11;2.50;;;0.90;;
26562;SDS011;14217;50.986;5.826;2022-10-26T03:05:18;1.45;;;0.45;;
26562;SDS011;14217;50.986;5.826;2022-10-26T03:10:23;4.25;;;0.60;;
26562;SDS011;14217;50.986;5.826;2022-10-26T03:15:26;0.57;;;0.40;;
26562;SDS011;14217;50.986;5.826;2022-10-26T03:20:28;1.17;;;0.73;;
26562;SDS011;14217;50.986;5.826;2022-10-26T03:25:29;1.58;;;0.60;;
26562;SDS011;14217;50.986;5.826;2022-10-26T03:30:32;0.75;;;0.40;;
26562;SDS011;14217;50.986;5.826;2022-10-26T03:35:33;1.05;;;0.52;;
26562;SDS011;14217;50.986;5.826;2022-10-26T03:40:35;1.35;;;0.50;;
26562;SDS011;14217;50.986;5.826;2022-10-26T03:45:37;1.17;;;0.50;;
26562;SDS011;14217;50.986;5.826;2022-10-26T03:50:39;1.50;;;0.50;;
26562;SDS011;14217;50.986;5.826;2022-10-26T03:55:44;1.77;;;0.40;;
26562;SDS011;14217;50.986;5.826;2022-10-26T04:00:46;7.65;;;0.77;;
26562;SDS011;14217;50.986;5.826;2022-10-26T04:05:48;1.23;;;0.60;;
26562;SDS011;14217;50.986;5.826;2022-10-26T04:10:50;1.10;;;0.40;;
26562;SDS011;14217;50.986;5.826;2022-10-26T04:15:52;1.25;;;0.50;;
26562;SDS011;14217;50.986;5.826;2022-10-26T04:20:54;1.05;;;0.57;;
26562;SDS011;14217;50.986;5.826;2022-10-26T04:25:56;0.45;;;0.30;;
26562;SDS011;14217;50.986;5.826;2022-10-26T04:30:58;5.05;;;0.65;;
26562;SDS011;14217;50.986;5.826;2022-10-26T04:36:00;0.38;;;0.30;;
26562;SDS011;14217;50.986;5.826;2022-10-26T04:41:01;0.82;;;0.63;;
26562;SDS011;14217;50.986;5.826;2022-10-26T04:46:04;1.17;;;0.47;;
26562;SDS011;14217;50.986;5.826;2022-10-26T04:51:05;0.68;;;0.50;;
26562;SDS011;14217;50.986;5.826;2022-10-26T04:56:07;1.73;;;0.70;;
26562;SDS011;14217;50.986;5.826;2022-10-26T05:01:10;0.38;;;0.30;;
26562;SDS011;14217;50.986;5.826;2022-10-26T05:06:12;0.20;;;0.20;;
26562;SDS011;14217;50.986;5.826;2022-10-26T05:11:14;0.82;;;0.40;;
26562;SDS011;14217;50.986;5.826;2022-10-26T05:16:16;1.92;;;0.60;;
26562;SDS011;14217;50.986;5.826;2022-10-26T05:21:18;0.85;;;0.60;;
26562;SDS011;14217;50.986;5.826;2022-10-26T05:26:21;6.85;;;0.40;;
26562;SDS011;14217;50.986;5.826;2022-10-26T05:31:23;0.57;;;0.50;;
26562;SDS011;14217;50.986;5.826;2022-10-26T05:36:25;0.98;;;0.75;;
26562;SDS011;14217;50.986;5.826;2022-10-26T05:41:27;1.85;;;0.50;;
26562;SDS011;14217;50.986;5.826;2022-10-26T05:46:29;1.67;;;0.40;;
26562;SDS011;14217;50.986;5.826;2022-10-26T05:51:32;0.60;;;0.40;;
26562;SDS011;14217;50.986;5.826;2022-10-26T05:56:36;0.55;;;0.40;;
26562;SDS011;14217;50.986;5.826;2022-10-26T06:06:53;0.32;;;0.13;;
26562;SDS011;14217;50.986;5.826;2022-10-26T06:11:55;0.90;;;0.50;;
26562;SDS011;14217;50.986;5.826;2022-10-26T06:17:04;1.00;;;0.32;;
26562;SDS011;14217;50.986;5.826;2022-10-26T06:22:36;1.83;;;0.35;;
26562;SDS011;14217;50.986;5.826;2022-10-26T06:28:14;13.90;;;1.33;;
26562;SDS011;14217;50.986;5.826;2022-10-26T06:33:22;7.85;;;0.73;;
26562;SDS011;14217;50.986;5.826;2022-10-26T06:38:30;4.18;;;0.93;;
26562;SDS011;14217;50.986;5.826;2022-10-26T06:43:34;10.73;;;0.88;;
26562;SDS011;14217;50.986;5.826;2022-10-26T06:48:43;13.68;;;1.67;;
26562;SDS011;14217;50.986;5.826;2022-10-26T06:53:57;14.05;;;0.70;;
26562;SDS011;14217;50.986;5.826;2022-10-26T06:59:05;0.63;;;0.60;;
26562;SDS011;14217;50.986;5.826;2022-10-26T07:04:14;6.15;;;1.67;;
26562;SDS011;14217;50.986;5.826;2022-10-26T07:09:16;20.23;;;1.55;;
26562;SDS011;14217;50.986;5.826;2022-10-26T07:14:17;8.10;;;1.15;;
26562;SDS011;14217;50.986;5.826;2022-10-26T07:19:19;2.60;;;0.70;;
26562;SDS011;14217;50.986;5.826;2022-10-26T07:24:21;5.60;;;0.90;;
26562;SDS011;14217;50.986;5.826;2022-10-26T07:29:24;4.43;;;1.33;;
26562;SDS011;14217;50.986;5.826;2022-10-26T07:34:27;3.92;;;1.20;;
26562;SDS011;14217;50.986;5.826;2022-10-26T07:39:29;9.02;;;1.85;;
26562;SDS011;14217;50.986;5.826;2022-10-26T07:44:33;14.10;;;1.00;;
26562;SDS011;14217;50.986;5.826;2022-10-26T07:49:35;7.70;;;1.55;;
26562;SDS011;14217;50.986;5.826;2022-10-26T07:54:36;6.03;;;1.65;;
26562;SDS011;14217;50.986;5.826;2022-10-26T07:59:38;2.55;;;1.20;;
26562;SDS011;14217;50.986;5.826;2022-10-26T08:04:40;10.45;;;1.65;;
26562;SDS011;14217;50.986;5.826;2022-10-26T08:09:42;5.70;;;1.35;;
26562;SDS011;14217;50.986;5.826;2022-10-26T08:14:44;4.15;;;0.75;;
26562;SDS011;14217;50.986;5.826;2022-10-26T08:19:46;3.17;;;0.80;;
26562;SDS011;14217;50.986;5.826;2022-10-26T08:24:49;4.13;;;0.90;;
26562;SDS011;14217;50.986;5.826;2022-10-26T08:29:50;6.05;;;0.93;;
26562;SDS011;14217;50.986;5.826;2022-10-26T08:34:52;7.05;;;0.90;;
26562;SDS011;14217;50.986;5.826;2022-10-26T08:39:54;2.58;;;0.88;;
26562;SDS011;14217;50.986;5.826;2022-10-26T08:45:00;4.88;;;1.20;;
26562;SDS011;14217;50.986;5.826;2022-10-26T08:55:19;3.25;;;1.20;;
26562;SDS011;14217;50.986;5.826;2022-10-26T09:00:33;1.23;;;0.50;;
26562;SDS011;14217;50.986;5.826;2022-10-26T09:05:37;1.77;;;0.80;;
26562;SDS011;14217;50.986;5.826;2022-10-26T09:21:40;1.42;;;0.70;;
26562;SDS011;14217;50.986;5.826;2022-10-26T09:31:55;2.35;;;0.85;;
26562;SDS011;14217;50.986;5.826;2022-10-26T09:37:00;3.20;;;1.02;;
26562;SDS011;14217;50.986;5.826;2022-10-26T09:42:17;2.22;;;0.80;;
26562;SDS011;14217;50.986;5.826;2022-10-26T09:47:30;2.28;;;1.02;;
26562;SDS011;14217;50.986;5.826;2022-10-26T09:52:38;2.40;;;0.60;;
26562;SDS011;14217;50.986;5.826;2022-10-26T09:57:44;3.30;;;1.02;;
26562;SDS011;14217;50.986;5.826;2022-10-26T10:02:54;1.30;;;0.98;;
26562;SDS011;14217;50.986;5.826;2022-10-26T10:13:18;3.83;;;0.82;;
26562;SDS011;14217;50.986;5.826;2022-10-26T10:18:24;2.40;;;0.60;;
26562;SDS011;14217;50.986;5.826;2022-10-26T10:23:27;1.63;;;0.70;;
26562;SDS011;14217;50.986;5.826;2022-10-26T10:28:31;1.05;;;0.40;;
26562;SDS011;14217;50.986;5.826;2022-10-26T10:33:40;1.08;;;0.40;;
26562;SDS011;14217;50.986;5.826;2022-10-26T10:38:43;0.68;;;0.60;;
26562;SDS011;14217;50.986;5.826;2022-10-26T10:43:54;1.70;;;0.60;;
26562;SDS011;14217;50.986;5.826;2022-10-26T10:49:14;3.22;;;1.08;;
26562;SDS011;14217;50.986;5.826;2022-10-26T10:54:30;10.60;;;0.90;;
26562;SDS011;14217;50.986;5.826;2022-10-26T11:09:54;1.38;;;0.80;;
26562;SDS011;14217;50.986;5.826;2022-10-26T11:15:09;0.50;;;0.50;;
26562;SDS011;14217;50.986;5.826;2022-10-26T11:20:18;1.45;;;0.57;;
26562;SDS011;14217;50.986;5.826;2022-10-26T11:25:26;0.45;;;0.45;;
26562;SDS011;14217;50.986;5.826;2022-10-26T11:30:32;0.85;;;0.60;;
26562;SDS011;14217;50.986;5.826;2022-10-26T11:35:41;1.13;;;0.55;;
26562;SDS011;14217;50.986;5.826;2022-10-26T11:41:04;3.20;;;0.70;;
26562;SDS011;14217;50.986;5.826;2022-10-26T11:46:37;2.83;;;0.47;;
26562;SDS011;14217;50.986;5.826;2022-10-26T11:52:13;0.82;;;0.40;;
26562;SDS011;14217;50.986;5.826;2022-10-26T11:57:23;1.27;;;0.47;;
26562;SDS011;14217;50.986;5.826;2022-10-26T12:02:29;2.17;;;0.80;;
26562;SDS011;14217;50.986;5.826;2022-10-26T12:07:37;1.67;;;0.50;;
26562;SDS011;14217;50.986;5.826;2022-10-26T12:12:42;0.95;;;0.73;;
26562;SDS011;14217;50.986;5.826;2022-10-26T12:17:52;1.60;;;0.57;;
26562;SDS011;14217;50.986;5.826;2022-10-26T12:22:59;0.63;;;0.45;;
26562;SDS011;14217;50.986;5.826;2022-10-26T12:28:06;0.47;;;0.45;;
26562;SDS011;14217;50.986;5.826;2022-10-26T12:33:50;0.50;;;0.50;;
26562;SDS011;14217;50.986;5.826;2022-10-26T12:38:55;2.05;;;1.00;;
26562;SDS011;14217;50.986;5.826;2022-10-26T12:44:01;0.20;;;0.20;;
26562;SDS011;14217;50.986;5.826;2022-10-26T13:00:16;0.57;;;0.35;;
26562;SDS011;14217;50.986;5.826;2022-10-26T13:05:44;1.27;;;0.40;;
26562;SDS011;14217;50.986;5.826;2022-10-26T13:11:01;0.85;;;0.50;;
26562;SDS011;14217;50.986;5.826;2022-10-26T13:16:07;1.15;;;0.45;;
26562;SDS011;14217;50.986;5.826;2022-10-26T13:21:12;0.43;;;0.43;;
26562;SDS011;14217;50.986;5.826;2022-10-26T13:26:17;0.52;;;0.40;;
26562;SDS011;14217;50.986;5.826;2022-10-26T13:36:33;0.43;;;0.43;;
26562;SDS011;14217;50.986;5.826;2022-10-26T13:41:40;0.60;;;0.50;;
26562;SDS011;14217;50.986;5.826;2022-10-26T13:46:45;1.38;;;0.52;;
26562;SDS011;14217;50.986;5.826;2022-10-26T13:51:53;0.90;;;0.50;;
26562;SDS011;14217;50.986;5.826;2022-10-26T14:02:15;1.08;;;0.38;;
26562;SDS011;14217;50.986;5.826;2022-10-26T14:07:22;0.50;;;0.50;;
26562;SDS011;14217;50.986;5.826;2022-10-26T14:12:26;0.60;;;0.57;;
26562;SDS011;14217;50.986;5.826;2022-10-26T14:17:31;0.75;;;0.30;;
26562;SDS011;14217;50.986;5.826;2022-10-26T14:22:33;1.30;;;0.60;;
26562;SDS011;14217;50.986;5.826;2022-10-26T14:27:37;1.27;;;0.30;;
26562;SDS011;14217;50.986;5.826;2022-10-26T14:32:39;0.30;;;0.30;;
26562;SDS011;14217;50.986;5.826;2022-10-26T14:37:46;0.85;;;0.40;;
26562;SDS011;14217;50.986;5.826;2022-10-26T14:43:15;0.82;;;0.32;;
26562;SDS011;14217;50.986;5.826;2022-10-26T14:48:32;0.73;;;0.30;;
26562;SDS011;14217;50.986;5.826;2022-10-26T14:53:36;0.30;;;0.30;;
26562;SDS011;14217;50.986;5.826;2022-10-26T14:58:41;0.40;;;0.30;;
26562;SDS011;14217;50.986;5.826;2022-10-26T15:03:43;1.48;;;0.30;;
26562;SDS011;14217;50.986;5.826;2022-10-26T15:08:45;0.82;;;0.50;;
26562;SDS011;14217;50.986;5.826;2022-10-26T15:14:03;0.63;;;0.30;;
26562;SDS011;14217;50.986;5.826;2022-10-26T15:19:13;0.93;;;0.30;;
26562;SDS011;14217;50.986;5.826;2022-10-26T15:24:34;1.33;;;0.50;;
26562;SDS011;14217;50.986;5.826;2022-10-26T15:34:46;0.63;;;0.22;;
26562;SDS011;14217;50.986;5.826;2022-10-26T15:39:50;1.65;;;0.60;;
26562;SDS011;14217;50.986;5.826;2022-10-26T15:44:52;1.02;;;0.40;;
26562;SDS011;14217;50.986;5.826;2022-10-26T15:49:53;0.30;;;0.30;;
26562;SDS011;14217;50.986;5.826;2022-10-26T15:54:55;0.82;;;0.32;;
26562;SDS011;14217;50.986;5.826;2022-10-26T15:59:57;0.22;;;0.22;;
26562;SDS011;14217;50.986;5.826;2022-10-26T16:04:59;0.17;;;0.17;;
26562;SDS011;14217;50.986;5.826;2022-10-26T16:10:01;1.90;;;0.20;;
26562;SDS011;14217;50.986;5.826;2022-10-26T16:15:04;0.65;;;0.55;;
26562;SDS011;14217;50.986;5.826;2022-10-26T16:20:07;0.25;;;0.25;;
26562;SDS011;14217;50.986;5.826;2022-10-26T16:25:23;1.08;;;0.70;;
26562;SDS011;14217;50.986;5.826;2022-10-26T16:30:27;0.47;;;0.30;;
26562;SDS011;14217;50.986;5.826;2022-10-26T16:35:31;0.40;;;0.35;;
26562;SDS011;14217;50.986;5.826;2022-10-26T16:40:32;0.52;;;0.40;;
26562;SDS011;14217;50.986;5.826;2022-10-26T16:45:34;0.63;;;0.43;;
26562;SDS011;14217;50.986;5.826;2022-10-26T16:50:40;0.95;;;0.40;;
26562;SDS011;14217;50.986;5.826;2022-10-26T16:55:41;0.80;;;0.47;;
26562;SDS011;14217;50.986;5.826;2022-10-26T17:00:44;0.90;;;0.32;;
26562;SDS011;14217;50.986;5.826;2022-10-26T17:05:46;1.80;;;0.40;;
26562;SDS011;14217;50.986;5.826;2022-10-26T17:10:48;0.60;;;0.30;;
26562;SDS011;14217;50.986;5.826;2022-10-26T17:15:49;0.47;;;0.30;;
26562;SDS011;14217;50.986;5.826;2022-10-26T17:20:51;0.55;;;0.50;;
26562;SDS011;14217;50.986;5.826;2022-10-26T17:25:53;0.40;;;0.25;;
26562;SDS011;14217;50.986;5.826;2022-10-26T17:31:05;1.58;;;0.50;;
26562;SDS011;14217;50.986;5.826;2022-10-26T17:36:12;0.70;;;0.57;;
26562;SDS011;14217;50.986;5.826;2022-10-26T17:41:17;1.58;;;0.40;;
26562;SDS011;14217;50.986;5.826;2022-10-26T17:46:21;0.50;;;0.50;;
26562;SDS011;14217;50.986;5.826;2022-10-26T17:51:25;0.30;;;0.30;;
26562;SDS011;14217;50.986;5.826;2022-10-26T17:56:28;0.63;;;0.60;;
26562;SDS011;14217;50.986;5.826;2022-10-26T18:01:32;1.60;;;0.90;;
26562;SDS011;14217;50.986;5.826;2022-10-26T18:06:34;1.48;;;0.60;;
26562;SDS011;14217;50.986;5.826;2022-10-26T18:11:36;2.63;;;0.80;;
26562;SDS011;14217;50.986;5.826;2022-10-26T18:16:38;0.77;;;0.75;;
26562;SDS011;14217;50.986;5.826;2022-10-26T18:21:40;1.92;;;0.80;;
26562;SDS011;14217;50.986;5.826;2022-10-26T18:26:42;7.97;;;1.60;;
26562;SDS011;14217;50.986;5.826;2022-10-26T18:31:43;12.27;;;1.20;;
26562;SDS011;14217;50.986;5.826;2022-10-26T18:36:46;16.70;;;0.75;;
26562;SDS011;14217;50.986;5.826;2022-10-26T18:41:48;5.97;;;1.67;;
26562;SDS011;14217;50.986;5.826;2022-10-26T18:46:49;10.20;;;0.88;;
26562;SDS011;14217;50.986;5.826;2022-10-26T18:51:52;2.83;;;1.10;;
26562;SDS011;14217;50.986;5.826;2022-10-26T18:56:55;9.82;;;1.25;;
26562;SDS011;14217;50.986;5.826;2022-10-26T19:01:56;4.93;;;0.88;;
26562;SDS011;14217;50.986;5.826;2022-10-26T19:06:58;4.00;;;1.10;;
26562;SDS011;14217;50.986;5.826;2022-10-26T19:12:01;5.18;;;0.93;;
26562;SDS011;14217;50.986;5.826;2022-10-26T19:17:04;1.98;;;0.80;;
26562;SDS011;14217;50.986;5.826;2022-10-26T19:22:06;8.75;;;1.00;;
26562;SDS011;14217;50.986;5.826;2022-10-26T19:27:08;5.95;;;0.70;;
26562;SDS011;14217;50.986;5.826;2022-10-26T19:32:10;1.77;;;1.02;;
26562;SDS011;14217;50.986;5.826;2022-10-26T19:37:12;2.88;;;0.60;;
26562;SDS011;14217;50.986;5.826;2022-10-26T19:42:14;1.50;;;0.68;;
26562;SDS011;14217;50.986;5.826;2022-10-26T19:47:16;4.60;;;0.90;;
26562;SDS011;14217;50.986;5.826;2022-10-26T19:52:18;2.08;;;0.65;;
26562;SDS011;14217;50.986;5.826;2022-10-26T19:57:20;1.85;;;0.73;;
26562;SDS011;14217;50.986;5.826;2022-10-26T20:02:25;2.38;;;0.70;;
26562;SDS011;14217;50.986;5.826;2022-10-26T20:07:28;5.45;;;0.88;;
26562;SDS011;14217;50.986;5.826;2022-10-26T20:12:30;1.23;;;0.70;;
26562;SDS011;14217;50.986;5.826;2022-10-26T20:17:33;1.50;;;0.63;;
26562;SDS011;14217;50.986;5.826;2022-10-26T20:22:35;1.60;;;0.80;;
26562;SDS011;14217;50.986;5.826;2022-10-26T20:27:36;0.77;;;0.63;;
26562;SDS011;14217;50.986;5.826;2022-10-26T20:32:42;2.13;;;0.80;;
26562;SDS011;14217;50.986;5.826;2022-10-26T20:37:43;1.83;;;0.70;;
26562;SDS011;14217;50.986;5.826;2022-10-26T20:42:46;0.70;;;0.50;;
26562;SDS011;14217;50.986;5.826;2022-10-26T20:48:10;0.60;;;0.57;;
26562;SDS011;14217;50.986;5.826;2022-10-26T20:53:17;8.93;;;0.63;;
26562;SDS011;14217;50.986;5.826;2022-10-26T21:03:57;0.55;;;0.55;;
26562;SDS011;14217;50.986;5.826;2022-10-26T21:09:00;1.52;;;0.45;;
26562;SDS011;14217;50.986;5.826;2022-10-26T21:14:02;0.55;;;0.55;;
26562;SDS011;14217;50.986;5.826;2022-10-26T21:19:05;1.20;;;0.50;;
26562;SDS011;14217;50.986;5.826;2022-10-26T21:24:08;1.80;;;0.90;;
26562;SDS011;14217;50.986;5.826;2022-10-26T21:29:10;1.30;;;0.55;;
26562;SDS011;14217;50.986;5.826;2022-10-26T21:34:12;2.63;;;0.45;;
26562;SDS011;14217;50.986;5.826;2022-10-26T21:39:14;1.42;;;0.70;;
26562;SDS011;14217;50.986;5.826;2022-10-26T21:44:16;0.85;;;0.73;;
26562;SDS011;14217;50.986;5.826;2022-10-26T21:49:38;0.73;;;0.60;;
26562;SDS011;14217;50.986;5.826;2022-10-26T21:54:41;2.65;;;0.52;;
26562;SDS011;14217;50.986;5.826;2022-10-26T21:59:43;0.57;;;0.50;;
26562;SDS011;14217;50.986;5.826;2022-10-26T22:04:45;1.33;;;0.60;;
26562;SDS011;14217;50.986;5.826;2022-10-26T22:09:47;0.45;;;0.43;;
26562;SDS011;14217;50.986;5.826;2022-10-26T22:15:09;0.47;;;0.40;;
26562;SDS011;14217;50.986;5.826;2022-10-26T22:20:11;1.05;;;0.43;;
26562;SDS011;14217;50.986;5.826;2022-10-26T22:25:13;1.85;;;0.80;;
26562;SDS011;14217;50.986;5.826;2022-10-26T22:30:14;0.70;;;0.52;;
26562;SDS011;14217;50.986;5.826;2022-10-26T22:35:16;1.45;;;0.50;;
26562;SDS011;14217;50.986;5.826;2022-10-26T22:40:29;0.63;;;0.50;;
26562;SDS011;14217;50.986;5.826;2022-10-26T22:45:31;1.27;;;0.60;;
26562;SDS011;14217;50.986;5.826;2022-10-26T22:50:35;5.85;;;0.60;;
26562;SDS011;14217;50.986;5.826;2022-10-26T22:55:39;0.65;;;0.40;;
26562;SDS011;14217;50.986;5.826;2022-10-26T23:00:42;1.63;;;0.77;;
26562;SDS011;14217;50.986;5.826;2022-10-26T23:05:47;2.15;;;0.60;;
26562;SDS011;14217;50.986;5.826;2022-10-26T23:10:49;0.60;;;0.40;;
26562;SDS011;14217;50.986;5.826;2022-10-26T23:15:52;1.65;;;0.60;;
26562;SDS011;14217;50.986;5.826;2022-10-26T23:20:53;0.45;;;0.38;;
26562;SDS011;14217;50.986;5.826;2022-10-26T23:26:06;0.40;;;0.30;;
26562;SDS011;14217;50.986;5.826;2022-10-26T23:31:12;0.52;;;0.30;;
26562;SDS011;14217;50.986;5.826;2022-10-26T23:36:16;0.40;;;0.40;;
26562;SDS011;14217;50.986;5.826;2022-10-26T23:41:19;0.32;;;0.30;;
26562;SDS011;14217;50.986;5.826;2022-10-26T23:46:21;0.50;;;0.50;;
26562;SDS011;14217;50.986;5.826;2022-10-26T23:51:23;0.40;;;0.40;;
26562;SDS011;14217;50.986;5.826;2022-10-26T23:56:24;0.88;;;0.40;;
